createdAt,value
2022-08-17T00:02:24.140Z,97383.47
2022-08-17T00:07:28.442Z,97382.09
2022-08-17T00:12:43.032Z,97381.28
2022-08-17T00:17:46.662Z,97378.31
2022-08-17T00:22:48.122Z,97388.41
2022-08-17T00:27:49.516Z,97389.28
2022-08-17T00:33:12.645Z,97384.38
2022-08-17T00:38:12.568Z,97386.28
2022-08-17T00:43:18.988Z,97383.06
2022-08-17T00:48:29.066Z,97386.88
2022-08-17T00:53:32.790Z,97382.78
2022-08-17T00:58:36.082Z,97388.50
2022-08-17T01:03:39.090Z,97382.81
2022-08-17T01:08:40.756Z,97385.25
2022-08-17T01:13:43.204Z,97383.09
2022-08-17T01:18:45.551Z,97384.44
2022-08-17T01:23:46.890Z,97388.00
2022-08-17T01:28:54.857Z,97398.06
2022-08-17T01:33:59.905Z,97396.72
2022-08-17T01:39:04.650Z,97391.81
2022-08-17T01:44:07.334Z,97396.72
2022-08-17T01:49:10.395Z,97402.69
2022-08-17T01:54:13.700Z,97409.50
2022-08-17T01:59:16.087Z,97399.44
2022-08-17T02:04:17.497Z,97398.59
2022-08-17T02:09:23.323Z,97408.66
2022-08-17T02:14:27.382Z,97405.63
2022-08-17T02:19:31.126Z,97405.06
2022-08-17T02:25:00.188Z,97398.22
2022-08-17T02:29:55.079Z,97399.31
2022-08-17T02:34:57.211Z,97398.22
2022-08-17T02:39:59.380Z,97393.31
2022-08-17T02:45:01.697Z,97386.78
2022-08-17T02:50:03.828Z,97385.66
2022-08-17T02:55:06.663Z,97399.25
2022-08-17T03:00:11.256Z,97394.88
2022-08-17T03:05:14.507Z,97397.56
2022-08-17T03:10:16.420Z,97402.72
2022-08-17T03:15:20.487Z,97390.47
2022-08-17T03:20:22.505Z,97395.34
2022-08-17T03:25:25.685Z,97381.25
2022-08-17T03:30:27.859Z,97380.13
2022-08-17T03:35:30.844Z,97373.59
2022-08-17T03:40:39.860Z,97381.66
2022-08-17T03:46:27.915Z,97370.25
2022-08-17T03:51:52.674Z,97370.47
2022-08-17T03:57:14.330Z,97371.53
2022-08-17T04:02:18.083Z,97368.78
2022-08-17T04:07:24.178Z,97370.69
2022-08-17T04:12:26.703Z,97371.72
2022-08-17T04:17:28.940Z,97373.06
2022-08-17T04:22:34.250Z,97376.00
2022-08-17T04:27:36.303Z,97384.44
2022-08-17T04:33:00.819Z,97381.16
2022-08-17T04:38:09.758Z,97381.97
2022-08-17T04:43:16.366Z,97385.25
2022-08-17T04:48:20.734Z,97399.38
2022-08-17T04:53:22.085Z,97404.53
2022-08-17T04:58:23.453Z,97403.19
2022-08-17T05:03:24.842Z,97407.00
2022-08-17T05:08:26.413Z,97413.56
2022-08-17T05:13:29.694Z,97410.06
2022-08-17T05:18:31.442Z,97411.72
2022-08-17T05:23:37.830Z,97425.34
2022-08-17T05:28:44.959Z,97415.38
2022-08-17T05:33:47.531Z,97411.13
2022-08-17T05:38:48.905Z,97414.72
2022-08-17T05:43:54.382Z,97415.06
2022-08-17T05:48:59.198Z,97422.97
2022-08-17T05:54:06.924Z,97421.09
2022-08-17T05:59:14.115Z,97422.53
2022-08-17T06:04:15.421Z,97429.63
2022-08-17T06:09:33.992Z,97428.81
2022-08-17T06:14:54.159Z,97445.16
2022-08-17T06:20:02.781Z,97437.00
2022-08-17T06:25:26.009Z,97432.03
2022-08-17T06:30:29.014Z,97440.19
2022-08-17T06:36:10.621Z,97441.16
2022-08-17T06:41:27.141Z,97440.78
2022-08-17T06:46:39.937Z,97436.53
2022-08-17T06:51:57.331Z,97441.91
2022-08-17T06:57:14.745Z,97439.56
2022-08-17T07:02:19.594Z,97445.16
2022-08-17T07:07:50.386Z,97449.59
2022-08-17T07:12:54.017Z,97446.66
2022-08-17T07:17:56.083Z,97448.13
2022-08-17T07:23:00.407Z,97453.72
2022-08-17T07:28:07.020Z,97442.66
2022-08-17T07:33:12.561Z,97448.75
2022-08-17T07:38:25.240Z,97459.16
2022-08-17T07:43:39.600Z,97456.53
2022-08-17T07:48:42.247Z,97462.63
2022-08-17T07:53:45.137Z,97461.28
2022-08-17T07:58:48.866Z,97456.97
2022-08-17T08:03:52.531Z,97452.97
2022-08-17T08:08:55.562Z,97445.59
2022-08-17T08:14:16.474Z,97451.66
2022-08-17T08:19:20.984Z,97450.06
2022-08-17T08:24:22.534Z,97447.34
2022-08-17T08:29:29.233Z,97451.22
2022-08-17T08:34:58.842Z,97457.06
2022-08-17T08:40:07.402Z,97447.09
2022-08-17T08:45:16.151Z,97455.50
2022-08-17T08:50:37.873Z,97450.50
2022-08-17T08:55:49.774Z,97455.69
2022-08-17T09:00:54.251Z,97455.84
2022-08-17T09:06:38.533Z,97456.81
2022-08-17T09:12:01.188Z,97466.13
2022-08-17T09:17:12.688Z,97457.03
2022-08-17T09:22:24.548Z,97448.69
2022-08-17T09:27:40.869Z,97447.91
2022-08-17T09:32:43.945Z,97446.38
2022-08-17T09:38:04.191Z,97440.38
2022-08-17T09:43:24.835Z,97442.72
2022-08-17T09:48:31.645Z,97432.88
2022-08-17T09:53:35.450Z,97442.31
2022-08-17T09:58:50.424Z,97439.41
2022-08-17T10:04:03.732Z,97445.78
2022-08-17T10:09:14.448Z,97443.88
2022-08-17T10:14:36.248Z,97443.59
2022-08-17T10:19:40.362Z,97442.47
2022-08-17T10:25:23.749Z,97438.09
2022-08-17T10:30:31.389Z,97444.25
2022-08-17T10:35:51.852Z,97438.72
2022-08-17T10:41:05.444Z,97427.22
2022-08-17T10:46:31.168Z,97426.75
2022-08-17T10:51:37.762Z,97425.63
2022-08-17T10:56:41.134Z,97423.81
2022-08-17T11:02:00.835Z,97426.41
2022-08-17T11:07:21.883Z,97421.56
2022-08-17T11:12:37.501Z,97426.84
2022-08-17T11:17:48.725Z,97410.13
2022-08-17T11:22:50.406Z,97417.22
2022-08-17T11:28:05.058Z,97408.75
2022-08-17T11:33:25.248Z,97413.06
2022-08-17T11:38:41.320Z,97407.63
2022-08-17T11:43:45.739Z,97405.56
2022-08-17T11:49:14.577Z,97400.53
2022-08-17T11:54:34.064Z,97411.88
2022-08-17T11:59:36.430Z,97413.06
2022-08-17T12:04:37.874Z,97400.06
2022-08-17T12:09:41.718Z,97400.72
2022-08-17T12:15:09.526Z,97381.59
2022-08-17T12:20:23.002Z,97375.94
2022-08-17T12:25:32.927Z,97380.13
2022-08-17T12:30:35.468Z,97375.38
2022-08-17T12:35:38.802Z,97382.69
2022-08-17T12:40:40.147Z,97372.94
2022-08-17T12:45:41.798Z,97384.56
2022-08-17T12:50:45.700Z,97373.69
2022-08-17T12:55:47.770Z,97371.09
2022-08-17T13:00:51.163Z,97363.38
2022-08-17T13:05:52.483Z,97365.06
2022-08-17T13:11:01.929Z,97360.88
2022-08-17T13:16:05.592Z,97367.31
2022-08-17T13:21:11.959Z,97362.31
2022-08-17T13:26:15.783Z,97370.88
2022-08-17T13:31:21.393Z,97358.31
2022-08-17T13:36:29.896Z,97365.34
2022-08-17T13:41:38.092Z,97376.28
2022-08-17T13:46:39.439Z,97366.31
2022-08-17T13:51:45.415Z,97373.31
2022-08-17T13:56:58.474Z,97356.50
2022-08-17T14:01:59.998Z,97352.41
2022-08-17T14:07:03.878Z,97351.41
2022-08-17T14:12:06.683Z,97358.59
2022-08-17T14:17:08.131Z,97347.66
2022-08-17T14:22:13.014Z,97363.78
2022-08-17T14:27:17.890Z,97344.50
2022-08-17T14:32:21.038Z,97340.94
2022-08-17T14:37:26.223Z,97324.31
2022-08-17T14:42:29.720Z,97329.38
2022-08-17T14:47:31.144Z,97335.50
2022-08-17T14:52:32.652Z,97328.94
2022-08-17T14:57:34.641Z,97338.84
2022-08-17T15:02:44.270Z,97345.53
2022-08-17T15:07:45.812Z,97345.84
2022-08-17T15:12:47.510Z,97343.16
2022-08-17T15:17:48.973Z,97342.97
2022-08-17T15:22:51.051Z,97336.41
2022-08-17T15:27:52.782Z,97331.97
2022-08-17T15:32:55.503Z,97335.88
2022-08-17T15:37:58.245Z,97331.03
2022-08-17T15:43:03.701Z,97321.34
2022-08-17T15:48:05.078Z,97318.47
2022-08-17T15:53:06.799Z,97307.75
2022-08-17T15:58:08.176Z,97300.59
2022-08-17T16:03:20.308Z,97299.00
2022-08-17T16:08:30.886Z,97299.00
2022-08-17T16:13:32.633Z,97292.31
2022-08-17T16:18:36.312Z,97302.47
2022-08-17T16:23:37.622Z,97300.09
2022-08-17T16:28:38.948Z,97292.28
2022-08-17T16:33:41.129Z,97298.00
2022-08-17T16:38:42.534Z,97304.69
2022-08-17T16:43:45.555Z,97309.81
2022-08-17T16:48:46.892Z,97303.84
2022-08-17T16:53:48.442Z,97308.28
2022-08-17T16:59:09.223Z,97311.97
2022-08-17T17:04:26.857Z,97310.28
2022-08-17T17:09:32.986Z,97310.88
2022-08-17T17:14:42.999Z,97313.25
2022-08-17T17:20:03.249Z,97307.38
2022-08-17T17:25:07.702Z,97318.69
2022-08-17T17:30:12.084Z,97326.81
2022-08-17T17:35:16.321Z,97333.53
2022-08-17T17:40:21.539Z,97332.44
2022-08-17T17:45:31.798Z,97334.72
2022-08-17T17:50:36.701Z,97329.22
2022-08-17T17:55:41.125Z,97333.59
2022-08-17T18:01:01.257Z,97330.47
2022-08-17T18:06:12.984Z,97337.56
2022-08-17T18:11:34.830Z,97339.16
2022-08-17T18:16:36.708Z,97341.53
2022-08-17T18:21:39.858Z,97335.00
2022-08-17T18:26:52.731Z,97343.03
2022-08-17T18:32:14.985Z,97342.03
2022-08-17T18:37:52.451Z,97326.75
2022-08-17T18:43:08.669Z,97336.69
2022-08-17T18:48:19.290Z,97332.91
2022-08-17T18:53:26.645Z,97333.47
2022-08-17T18:58:35.927Z,97328.53
2022-08-17T19:03:41.940Z,97335.91
2022-08-17T19:08:44.273Z,97335.34
2022-08-17T19:13:54.592Z,97333.25
2022-08-17T19:18:56.140Z,97338.91
2022-08-17T19:23:58.615Z,97336.25
2022-08-17T19:29:02.768Z,97338.50
2022-08-17T19:34:04.118Z,97334.78
2022-08-17T19:39:16.226Z,97328.19
2022-08-17T19:44:26.979Z,97327.56
2022-08-17T19:49:46.806Z,97323.09
2022-08-17T19:54:58.821Z,97330.34
2022-08-17T20:00:16.818Z,97322.81
2022-08-17T20:05:23.781Z,97326.56
2022-08-17T20:10:38.628Z,97308.38
2022-08-17T20:15:41.533Z,97314.06
2022-08-17T20:20:59.498Z,97313.91
2022-08-17T20:26:20.387Z,97305.91
2022-08-17T20:31:41.977Z,97312.69
2022-08-17T20:36:57.385Z,97314.72
2022-08-17T20:42:26.963Z,97312.56
2022-08-17T20:47:30.956Z,97313.63
2022-08-17T20:52:35.552Z,97308.28
2022-08-17T20:57:37.067Z,97317.13
2022-08-17T21:02:38.519Z,97317.78
2022-08-17T21:07:53.004Z,97312.97
2022-08-17T21:12:57.590Z,97310.88
2022-08-17T21:18:31.697Z,97319.63
2022-08-17T21:23:55.978Z,97324.00
2022-08-17T21:29:31.358Z,97341.16
2022-08-17T21:34:44.136Z,97337.56
2022-08-17T21:39:50.761Z,97354.47
2022-08-17T21:44:55.507Z,97353.38
2022-08-17T21:50:13.311Z,97352.25
2022-08-17T21:55:24.694Z,97347.91
2022-08-17T22:00:30.205Z,97347.66
2022-08-17T22:05:36.423Z,97352.91
2022-08-17T22:10:40.957Z,97354.06
2022-08-17T22:15:43.621Z,97346.47
2022-08-17T22:20:52.063Z,97337.28
2022-08-17T22:26:00.067Z,97346.09
2022-08-17T22:31:04.145Z,97340.16
2022-08-17T22:36:11.688Z,97341.31
2022-08-17T22:41:25.418Z,97347.63
2022-08-17T22:46:26.761Z,97359.94
2022-08-17T22:51:29.953Z,97360.50
2022-08-17T22:56:49.755Z,97362.13
2022-08-17T23:02:10.223Z,97356.16
2022-08-17T23:07:11.704Z,97354.03
2022-08-17T23:12:15.679Z,97345.38
2022-08-17T23:17:17.233Z,97339.72
2022-08-17T23:22:18.723Z,97338.91
2022-08-17T23:27:20.568Z,97347.66
2022-08-17T23:32:22.283Z,97345.50
2022-08-17T23:37:23.610Z,97339.53
2022-08-17T23:42:24.993Z,97334.06
2022-08-17T23:47:26.341Z,97345.50
2022-08-17T23:52:27.892Z,97349.03
2022-08-17T23:57:33.131Z,97342.19
